Time;durP1;ratioP1;P1;durP2;ratioP2;P2;SDS_P1;SDS_P2;PMS_P1;PMS_P2;Temp;Humidity;BMP_temperature;BMP_pressure;BME280_temperature;BME280_humidity;BME280_pressure;Samples;Min_cycle;Max_cycle;Signal;HPM_P1;HPM_P2
2021/03/18 00:01:08;;;;;;;12.37;7.43;;;1.10;97.30;;;;;;5015813;28;20450;-84
2021/03/18 00:03:35;;;;;;;10.33;6.80;;;1.10;97.30;;;;;;5015805;28;20416;-83
2021/03/18 00:06:02;;;;;;;12.40;6.50;;;1.10;97.30;;;;;;5015602;28;20415;-84
2021/03/18 00:08:28;;;;;;;11.93;7.23;;;1.20;97.30;;;;;;5015720;28;20510;-84
2021/03/18 00:10:54;;;;;;;12.30;8.30;;;1.20;97.30;;;;;;5015566;28;20427;-83
2021/03/18 00:13:22;;;;;;;11.80;7.10;;;1.20;97.30;;;;;;5015611;28;20420;-83
2021/03/18 00:15:48;;;;;;;11.90;7.30;;;1.30;97.30;;;;;;4998076;28;20549;-83
2021/03/18 00:18:19;;;;;;;16.40;7.30;;;1.30;97.30;;;;;;4996165;28;20463;-84
2021/03/18 00:20:45;;;;;;;13.50;7.00;;;1.30;97.30;;;;;;4999808;28;20762;-84
2021/03/18 00:23:11;;;;;;;11.97;6.47;;;1.30;97.30;;;;;;4999927;28;20416;-84
2021/03/18 00:25:37;;;;;;;15.47;7.40;;;1.30;97.30;;;;;;4999884;28;20436;-83
2021/03/18 00:28:04;;;;;;;11.13;6.73;;;1.30;97.30;;;;;;4999851;28;20434;-83
2021/03/18 00:30:30;;;;;;;14.30;7.10;;;1.30;97.30;;;;;;5012625;28;20415;-84
2021/03/18 00:32:57;;;;;;;13.43;7.00;;;1.30;97.30;;;;;;5010982;28;20407;-84
2021/03/18 00:35:24;;;;;;;11.87;6.70;;;1.30;97.30;;;;;;5019646;28;20427;-84
2021/03/18 00:37:51;;;;;;;12.37;7.70;;;1.30;97.30;;;;;;5016677;28;20404;-84
2021/03/18 00:40:23;;;;;;;11.97;7.90;;;1.20;97.30;;;;;;4998737;28;20463;-84
2021/03/18 00:42:56;;;;;;;13.20;7.23;;;1.20;97.30;;;;;;4998825;28;20408;-83
2021/03/18 00:45:23;;;;;;;13.57;8.10;;;1.20;97.30;;;;;;4999137;28;20428;-84
2021/03/18 00:47:50;;;;;;;12.63;7.03;;;1.20;97.30;;;;;;4999078;28;20523;-84
2021/03/18 00:50:29;;;;;;;14.47;7.00;;;1.00;97.30;;;;;;4998873;28;20420;-83
2021/03/18 00:52:55;;;;;;;12.93;7.10;;;1.00;97.30;;;;;;4999955;28;20447;-84
2021/03/18 00:55:21;;;;;;;11.50;7.13;;;0.90;97.30;;;;;;5015328;28;20435;-84
2021/03/18 00:57:47;;;;;;;14.93;8.20;;;0.90;97.30;;;;;;5019243;28;20440;-83
2021/03/18 01:00:30;;;;;;;14.93;7.40;;;0.80;97.30;;;;;;5019653;28;20454;-84
2021/03/18 01:02:57;;;;;;;14.87;7.60;;;0.80;97.30;;;;;;5019815;28;20400;-84
2021/03/18 01:05:46;;;;;;;12.30;8.20;;;0.80;97.30;;;;;;5019099;28;20503;-85
2021/03/18 01:08:13;;;;;;;15.70;8.47;;;0.70;97.30;;;;;;5019607;28;20403;-84
2021/03/18 01:10:43;;;;;;;14.90;7.60;;;0.70;97.30;;;;;;5019284;28;20455;-87
2021/03/18 01:13:09;;;;;;;13.53;8.33;;;0.70;97.30;;;;;;5019208;28;20449;-86
2021/03/18 01:15:35;;;;;;;12.70;7.87;;;0.70;97.30;;;;;;5019007;28;20549;-85
2021/03/18 01:18:03;;;;;;;14.37;8.47;;;0.70;97.30;;;;;;5019591;28;20183;-86
2021/03/18 01:20:29;;;;;;;16.40;8.43;;;0.70;97.30;;;;;;5021140;28;20494;-87
2021/03/18 01:22:54;;;;;;;15.93;8.30;;;0.60;97.30;;;;;;5021124;28;20470;-86
2021/03/18 01:25:20;;;;;;;18.90;8.80;;;0.60;97.30;;;;;;5021544;28;20200;-86
2021/03/18 01:27:45;;;;;;;13.73;7.73;;;0.60;97.30;;;;;;5022046;28;20173;-85
2021/03/18 01:30:15;;;;;;;16.33;9.90;;;0.60;97.30;;;;;;5020925;28;20176;-86
2021/03/18 01:32:41;;;;;;;17.73;9.40;;;0.60;97.30;;;;;;5021336;28;20546;-86
2021/03/18 01:35:11;;;;;;;18.10;9.17;;;0.70;97.30;;;;;;5021767;28;20445;-86
2021/03/18 01:37:36;;;;;;;13.00;8.30;;;0.60;97.30;;;;;;5021649;28;20183;-86
2021/03/18 01:40:05;;;;;;;16.37;9.10;;;0.60;97.30;;;;;;5039309;28;21061;-86
2021/03/18 01:42:32;;;;;;;16.63;8.57;;;0.60;97.30;;;;;;5039625;28;20430;-86
2021/03/18 01:44:58;;;;;;;15.67;8.63;;;0.60;97.30;;;;;;5021431;28;20438;-86
2021/03/18 01:47:24;;;;;;;13.07;8.20;;;0.60;97.30;;;;;;5020648;28;20460;-86
2021/03/18 01:49:50;;;;;;;17.87;7.73;;;0.60;97.30;;;;;;5019232;28;20182;-86
2021/03/18 01:52:15;;;;;;;15.67;8.23;;;0.50;97.30;;;;;;5019203;28;20425;-86
2021/03/18 01:54:41;;;;;;;14.40;8.40;;;0.50;97.30;;;;;;5019645;28;20197;-86
2021/03/18 01:57:06;;;;;;;19.53;8.23;;;0.40;97.30;;;;;;5019838;28;20264;-86
2021/03/18 01:59:32;;;;;;;15.97;8.70;;;0.40;97.30;;;;;;5020322;28;20211;-86
2021/03/18 02:01:58;;;;;;;14.57;8.70;;;0.40;97.30;;;;;;5020529;28;20212;-87
2021/03/18 02:04:23;;;;;;;20.33;10.40;;;0.40;97.30;;;;;;5020928;28;20192;-87
2021/03/18 02:06:49;;;;;;;18.57;9.60;;;0.40;97.30;;;;;;5020815;28;20176;-86
2021/03/18 02:09:15;;;;;;;19.23;10.53;;;0.40;97.30;;;;;;5021063;28;20173;-86
2021/03/18 02:11:40;;;;;;;16.77;9.50;;;0.40;97.30;;;;;;5038621;28;20449;-86
2021/03/18 02:14:06;;;;;;;21.20;9.87;;;0.40;97.30;;;;;;5022125;28;20235;-86
2021/03/18 02:16:35;;;;;;;15.73;9.40;;;0.40;97.30;;;;;;5021949;28;20184;-86
2021/03/18 02:19:38;;;;;;;15.50;9.73;;;0.40;97.30;;;;;;5021941;28;20206;-87
2021/03/18 02:22:28;;;;;;;20.10;9.77;;;0.40;97.30;;;;;;5022306;28;20863;-86
2021/03/18 02:25:15;;;;;;;24.47;10.50;;;0.40;97.30;;;;;;5022518;28;20436;-86
2021/03/18 02:27:53;;;;;;;20.23;10.10;;;0.40;97.30;;;;;;5039592;28;20418;-86
2021/03/18 02:30:57;;;;;;;18.53;10.30;;;0.40;97.30;;;;;;5009654;28;20443;-86
2021/03/18 02:33:51;;;;;;;15.20;9.30;;;0.30;97.30;;;;;;4958950;28;20441;-86
2021/03/18 02:36:22;;;;;;;19.67;9.20;;;0.30;97.30;;;;;;4954779;28;20524;-86
2021/03/18 02:39:09;;;;;;;18.37;9.70;;;0.20;97.30;;;;;;4986796;28;20461;-86
2021/03/18 02:41:41;;;;;;;18.73;10.27;;;0.10;97.30;;;;;;4998219;28;20511;-86
2021/03/18 02:44:24;;;;;;;17.03;10.30;;;0.00;97.30;;;;;;4998430;28;20467;-86
2021/03/18 02:46:57;;;;;;;18.57;9.83;;;0.00;97.30;;;;;;5001106;28;20465;-86
2021/03/18 02:49:24;;;;;;;20.30;9.50;;;-0.10;97.30;;;;;;5000679;28;20448;-86
2021/03/18 02:51:53;;;;;;;18.13;10.60;;;-0.10;97.30;;;;;;5000494;28;20973;-85
2021/03/18 02:54:20;;;;;;;16.83;9.93;;;-0.10;97.30;;;;;;4999939;28;20451;-86
2021/03/18 02:56:48;;;;;;;18.70;10.83;;;-0.10;97.30;;;;;;5000450;28;20424;-86
2021/03/18 02:59:23;;;;;;;19.77;10.40;;;-0.10;97.30;;;;;;5000627;28;20458;-86
2021/03/18 03:01:49;;;;;;;20.63;10.23;;;-0.10;97.30;;;;;;5008862;28;20915;-87
2021/03/18 03:04:16;;;;;;;17.80;10.17;;;-0.10;97.30;;;;;;5013441;28;20471;-87
2021/03/18 03:06:43;;;;;;;21.30;10.20;;;-0.10;97.30;;;;;;5029272;28;20408;-87
2021/03/18 03:09:09;;;;;;;22.13;10.40;;;0.00;97.30;;;;;;5001723;28;20447;-85
2021/03/18 03:11:38;;;;;;;21.47;10.80;;;0.00;97.30;;;;;;4999987;28;20463;-86
2021/03/18 03:14:07;;;;;;;19.77;10.30;;;0.00;97.30;;;;;;5003570;28;21032;-85
2021/03/18 03:16:33;;;;;;;17.80;10.33;;;-0.10;97.30;;;;;;5036701;28;20417;-86
2021/03/18 03:19:01;;;;;;;29.47;11.87;;;0.00;97.30;;;;;;5035660;28;20455;-86
2021/03/18 03:21:27;;;;;;;19.00;10.67;;;0.00;97.30;;;;;;5035739;28;20437;-85
2021/03/18 03:23:54;;;;;;;23.30;10.30;;;-0.10;97.30;;;;;;5034889;28;20449;-86
2021/03/18 03:26:24;;;;;;;19.07;10.77;;;0.00;97.30;;;;;;5035553;28;20502;-86
2021/03/18 03:28:50;;;;;;;17.80;10.00;;;-0.10;97.30;;;;;;5035360;28;20419;-85
2021/03/18 03:31:18;;;;;;;16.90;9.67;;;-0.10;97.30;;;;;;5034884;28;21037;-86
2021/03/18 03:33:44;;;;;;;24.33;11.10;;;-0.10;97.30;;;;;;5034451;28;20444;-86
2021/03/18 03:36:10;;;;;;;19.30;10.67;;;-0.20;97.30;;;;;;5034525;28;20454;-86
2021/03/18 03:38:36;;;;;;;21.70;10.77;;;-0.20;97.30;;;;;;5034216;28;20490;-86
2021/03/18 03:41:03;;;;;;;18.50;10.10;;;-0.20;97.30;;;;;;5035831;28;20823;-86
2021/03/18 03:43:30;;;;;;;17.80;10.43;;;-0.20;97.30;;;;;;5033596;28;20222;-85
2021/03/18 03:45:55;;;;;;;18.77;9.97;;;-0.20;97.30;;;;;;5034437;28;20446;-86
2021/03/18 03:48:22;;;;;;;20.73;9.90;;;-0.20;97.30;;;;;;5033762;28;20430;-85
2021/03/18 03:50:49;;;;;;;20.23;10.70;;;-0.30;97.30;;;;;;5034581;28;20183;-86
2021/03/18 03:53:39;;;;;;;18.33;9.40;;;-0.30;97.30;;;;;;5033239;28;20481;-86
2021/03/18 03:56:16;;;;;;;21.40;10.80;;;-0.30;97.30;;;;;;5034283;28;20418;-86
2021/03/18 03:58:58;;;;;;;21.13;10.47;;;-0.30;97.30;;;;;;5034025;28;20528;-86
2021/03/18 04:01:29;;;;;;;23.30;10.53;;;-0.30;97.30;;;;;;5034125;28;20407;-86
2021/03/18 04:04:04;;;;;;;16.83;10.57;;;-0.30;97.30;;;;;;5034133;28;20435;-86
2021/03/18 04:06:34;;;;;;;22.23;10.70;;;-0.40;97.30;;;;;;5034434;28;20901;-86
2021/03/18 04:09:01;;;;;;;19.67;10.90;;;-0.40;97.30;;;;;;5035591;28;20411;-86
2021/03/18 04:11:27;;;;;;;20.27;11.33;;;-0.40;97.30;;;;;;5035205;28;20502;-85
2021/03/18 04:13:54;;;;;;;19.23;9.63;;;-0.50;97.30;;;;;;5032037;28;20443;-86
2021/03/18 04:16:22;;;;;;;22.27;10.67;;;-0.60;97.30;;;;;;4998712;28;20510;-86
2021/03/18 04:18:54;;;;;;;21.50;10.60;;;-0.60;97.30;;;;;;4998435;28;20567;-86
2021/03/18 04:21:21;;;;;;;22.70;12.20;;;-0.60;97.30;;;;;;4998250;28;20436;-86
2021/03/18 04:23:47;;;;;;;20.43;10.60;;;-0.60;97.30;;;;;;4998088;28;20414;-86
2021/03/18 04:26:13;;;;;;;25.80;13.40;;;-0.60;97.30;;;;;;4997872;28;20507;-86
2021/03/18 04:28:41;;;;;;;26.23;11.70;;;-0.60;97.30;;;;;;5014903;28;20414;-86
2021/03/18 04:31:08;;;;;;;21.57;11.53;;;-0.60;97.30;;;;;;5015050;28;20511;-86
2021/03/18 04:33:34;;;;;;;23.10;12.13;;;-0.60;97.30;;;;;;4998510;28;20806;-86
2021/03/18 04:36:01;;;;;;;25.10;11.03;;;-0.60;97.30;;;;;;5015269;28;20925;-87
2021/03/18 04:38:29;;;;;;;26.70;12.40;;;-0.60;97.30;;;;;;4998350;28;20462;-86
2021/03/18 04:40:55;;;;;;;21.47;10.70;;;-0.60;97.30;;;;;;4998388;28;20424;-87
2021/03/18 04:43:22;;;;;;;25.77;10.77;;;-0.60;97.30;;;;;;4998466;28;20493;-86
2021/03/18 04:45:49;;;;;;;21.33;11.23;;;-0.60;97.30;;;;;;4998353;28;20447;-86
2021/03/18 04:48:16;;;;;;;23.47;11.50;;;-0.60;97.30;;;;;;4997997;28;20511;-87
2021/03/18 04:50:42;;;;;;;21.23;11.97;;;-0.60;97.30;;;;;;4997803;28;20500;-86
2021/03/18 04:53:08;;;;;;;24.10;11.97;;;-0.60;97.30;;;;;;4997655;28;20955;-86
2021/03/18 04:55:34;;;;;;;25.57;12.30;;;-0.60;97.30;;;;;;4997589;28;20522;-86
2021/03/18 04:58:02;;;;;;;24.33;12.03;;;-0.60;97.30;;;;;;4997441;28;20182;-86
2021/03/18 05:00:29;;;;;;;25.67;13.03;;;-0.60;97.30;;;;;;4998058;28;20244;-87
2021/03/18 05:03:01;;;;;;;24.03;12.33;;;-0.70;97.30;;;;;;4998069;28;20475;-85
2021/03/18 05:05:28;;;;;;;24.90;12.83;;;-0.70;97.30;;;;;;4999887;28;20474;-86
2021/03/18 05:07:55;;;;;;;22.97;12.70;;;-0.80;97.30;;;;;;5018591;28;20411;-86
2021/03/18 05:10:23;;;;;;;29.80;14.00;;;-0.80;97.30;;;;;;5001073;28;20506;-86
2021/03/18 05:12:50;;;;;;;29.50;14.67;;;-0.70;97.30;;;;;;5001178;28;20543;-85
2021/03/18 05:15:17;;;;;;;23.27;12.10;;;-0.70;97.30;;;;;;4999984;28;20479;-86
2021/03/18 05:17:43;;;;;;;29.20;13.63;;;-0.70;97.30;;;;;;5003912;28;20445;-86
2021/03/18 05:20:10;;;;;;;27.67;13.53;;;-0.60;97.30;;;;;;5026900;28;20452;-86
2021/03/18 05:25:08;;;;;;;23.40;12.43;;;-0.60;97.30;;;;;;5026328;28;20944;-86
2021/03/18 05:27:34;;;;;;;26.47;13.57;;;-0.60;97.30;;;;;;5012355;28;20544;-86
2021/03/18 05:30:00;;;;;;;29.60;14.07;;;-0.60;97.30;;;;;;5017476;28;20411;-86
2021/03/18 05:32:27;;;;;;;36.40;13.47;;;-0.60;97.30;;;;;;5017062;28;20415;-86
2021/03/18 05:34:52;;;;;;;27.70;13.93;;;-0.60;97.30;;;;;;4997517;28;20185;-85
2021/03/18 05:37:18;;;;;;;29.30;14.77;;;-0.50;97.30;;;;;;4997432;28;20404;-86
2021/03/18 05:39:44;;;;;;;35.57;14.57;;;-0.40;97.30;;;;;;5000942;28;20220;-86
2021/03/18 05:42:10;;;;;;;32.87;15.40;;;-0.40;97.30;;;;;;5016932;28;20169;-86
2021/03/18 05:44:35;;;;;;;35.73;15.90;;;-0.30;97.30;;;;;;5016872;28;20288;-86
2021/03/18 05:47:02;;;;;;;34.33;16.17;;;-0.30;97.30;;;;;;5008104;28;20185;-87
2021/03/18 05:49:29;;;;;;;29.80;15.87;;;-0.20;97.30;;;;;;4996588;28;20181;-86
2021/03/18 05:51:56;;;;;;;34.03;16.83;;;-0.10;97.30;;;;;;4996287;28;20424;-86
2021/03/18 05:54:23;;;;;;;37.23;17.53;;;0.00;97.30;;;;;;5012300;28;20486;-83
2021/03/18 05:56:50;;;;;;;32.27;16.60;;;0.10;97.30;;;;;;4990657;28;20497;-86
2021/03/18 05:59:18;;;;;;;36.37;16.77;;;0.10;97.30;;;;;;4997894;28;20518;-84
2021/03/18 06:01:44;;;;;;;31.63;16.13;;;0.10;97.30;;;;;;5013419;28;20968;-84
2021/03/18 06:04:11;;;;;;;40.20;16.50;;;0.20;97.30;;;;;;4995343;28;20448;-84
2021/03/18 06:06:38;;;;;;;36.20;17.70;;;0.20;97.30;;;;;;5024206;28;20408;-85
2021/03/18 06:09:18;;;;;;;39.30;18.13;;;0.20;97.30;;;;;;5009291;28;20516;-85
2021/03/18 06:11:49;;;;;;;34.17;16.37;;;0.30;97.30;;;;;;5035667;28;20407;-86
2021/03/18 06:14:15;;;;;;;34.73;17.67;;;0.30;97.30;;;;;;5017848;28;20497;-86
2021/03/18 06:16:48;;;;;;;33.70;17.03;;;0.40;97.30;;;;;;5016480;28;20824;-85
2021/03/18 06:19:15;;;;;;;35.63;16.80;;;0.40;97.30;;;;;;5035166;28;20610;-85
2021/03/18 06:21:52;;;;;;;38.07;16.90;;;0.50;97.30;;;;;;5017053;28;20427;-85
2021/03/18 06:24:20;;;;;;;36.00;16.80;;;0.60;97.30;;;;;;5027091;28;20471;-86
2021/03/18 06:26:48;;;;;;;33.07;16.27;;;0.60;97.30;;;;;;5033468;28;20423;-85
2021/03/18 06:29:41;;;;;;;35.40;17.10;;;0.70;97.30;;;;;;5020778;28;20431;-84
2021/03/18 06:32:13;;;;;;;32.93;16.77;;;0.80;97.30;;;;;;4994356;28;20537;-83
2021/03/18 06:34:46;;;;;;;41.37;16.50;;;0.80;97.30;;;;;;4995628;28;20444;-85
2021/03/18 06:37:36;;;;;;;38.50;17.43;;;0.90;97.30;;;;;;4994699;28;20959;-85
2021/03/18 06:40:05;;;;;;;33.57;16.83;;;0.90;97.30;;;;;;4994344;28;20449;-83
2021/03/18 06:42:34;;;;;;;34.47;15.90;;;0.80;97.30;;;;;;5001120;28;20511;-84
2021/03/18 06:45:14;;;;;;;35.73;18.13;;;0.80;97.30;;;;;;5014004;28;20851;-85
2021/03/18 06:47:52;;;;;;;37.37;16.60;;;0.80;97.30;;;;;;5014091;28;20977;-83
2021/03/18 06:50:22;;;;;;;36.20;17.43;;;0.80;97.30;;;;;;5014154;28;20526;-85
2021/03/18 06:52:48;;;;;;;37.43;17.53;;;0.90;97.30;;;;;;5017904;28;21163;-86
2021/03/18 06:55:35;;;;;;;42.33;18.40;;;0.90;97.30;;;;;;5030500;28;20450;-85
2021/03/18 06:58:13;;;;;;;39.10;17.97;;;0.90;97.30;;;;;;5028515;28;21169;-86
2021/03/18 07:00:40;;;;;;;45.07;19.00;;;1.00;97.30;;;;;;5015520;28;20442;-85
2021/03/18 07:03:09;;;;;;;43.00;19.00;;;1.00;97.30;;;;;;5008395;28;20494;-84
2021/03/18 07:05:42;;;;;;;38.23;17.40;;;1.10;97.30;;;;;;5008579;28;20665;-86
2021/03/18 07:08:27;;;;;;;46.07;20.63;;;1.10;97.30;;;;;;5010144;28;20510;-85
2021/03/18 07:10:54;;;;;;;42.03;20.17;;;1.20;97.30;;;;;;5013115;28;20555;-85
2021/03/18 07:13:30;;;;;;;37.43;18.17;;;1.20;97.30;;;;;;5011630;28;20534;-86
2021/03/18 07:15:58;;;;;;;40.77;18.23;;;1.30;97.30;;;;;;5011665;28;20425;-86
2021/03/18 07:18:25;;;;;;;34.10;17.87;;;1.30;97.30;;;;;;5012280;28;20427;-85
2021/03/18 07:21:04;;;;;;;42.50;19.30;;;1.40;97.30;;;;;;5011921;28;20416;-84
2021/03/18 07:23:39;;;;;;;36.10;18.60;;;1.50;97.30;;;;;;5011354;28;20471;-84
2021/03/18 07:26:18;;;;;;;37.93;17.20;;;1.60;97.30;;;;;;5012510;28;20447;-85
2021/03/18 07:28:48;;;;;;;32.80;16.80;;;1.70;97.30;;;;;;5010587;28;20486;-85
2021/03/18 07:31:16;;;;;;;50.17;19.33;;;1.60;97.30;;;;;;5009585;28;20616;-86
2021/03/18 07:33:43;;;;;;;34.03;16.73;;;1.70;97.30;;;;;;5011030;28;20464;-86
2021/03/18 07:36:09;;;;;;;42.57;19.10;;;1.70;97.30;;;;;;5010856;28;20428;-86
2021/03/18 07:38:36;;;;;;;35.43;17.60;;;1.80;97.30;;;;;;5009962;28;20491;-86
2021/03/18 07:41:04;;;;;;;35.07;17.27;;;1.90;97.30;;;;;;5010570;28;20417;-86
2021/03/18 07:43:30;;;;;;;33.47;16.80;;;1.90;97.30;;;;;;5010397;28;20444;-85
2021/03/18 07:45:57;;;;;;;40.70;17.87;;;2.00;97.30;;;;;;5011792;28;20821;-85
2021/03/18 07:48:23;;;;;;;36.27;16.33;;;2.00;97.30;;;;;;5010931;28;20940;-85
2021/03/18 07:50:50;;;;;;;40.70;19.60;;;2.10;97.30;;;;;;5010729;28;20428;-84
2021/03/18 07:53:18;;;;;;;46.17;19.30;;;2.20;97.30;;;;;;5011064;28;20455;-85
2021/03/18 07:55:46;;;;;;;39.30;18.77;;;2.20;97.30;;;;;;5012227;28;20432;-84
2021/03/18 07:58:12;;;;;;;37.03;17.20;;;2.30;97.30;;;;;;5009596;28;20486;-85
2021/03/18 08:00:44;;;;;;;33.33;16.87;;;2.40;97.30;;;;;;5011906;28;21204;-85
2021/03/18 08:03:22;;;;;;;35.00;17.30;;;2.40;97.30;;;;;;5011825;28;20445;-84
2021/03/18 08:05:50;;;;;;;39.03;16.87;;;2.40;97.30;;;;;;5013613;28;20436;-85
2021/03/18 08:08:31;;;;;;;41.27;18.03;;;2.50;97.30;;;;;;5012402;28;20511;-85
2021/03/18 08:11:15;;;;;;;35.17;17.83;;;2.70;97.30;;;;;;5013479;28;20552;-85
2021/03/18 08:13:44;;;;;;;36.47;18.73;;;2.80;97.30;;;;;;4996964;28;20440;-85
2021/03/18 08:16:29;;;;;;;32.43;15.70;;;3.00;97.30;;;;;;5012079;28;20400;-83
2021/03/18 08:18:56;;;;;;;32.50;16.63;;;3.10;97.30;;;;;;5012252;28;20451;-83
2021/03/18 08:21:34;;;;;;;34.80;17.03;;;3.10;97.30;;;;;;5013076;28;20499;-82
2021/03/18 08:24:00;;;;;;;31.83;16.00;;;3.10;97.30;;;;;;4992022;28;20559;-82
2021/03/18 08:26:37;;;;;;;33.10;16.60;;;3.10;97.30;;;;;;4992793;28;20496;-83
2021/03/18 08:29:07;;;;;;;29.50;15.87;;;3.10;97.30;;;;;;4993273;28;20441;-83
2021/03/18 08:31:32;;;;;;;28.80;15.57;;;3.10;97.30;;;;;;4991582;28;20456;-83
2021/03/18 08:34:00;;;;;;;32.20;15.70;;;3.10;97.30;;;;;;4991352;28;20472;-82
2021/03/18 08:36:38;;;;;;;30.63;16.77;;;3.20;97.30;;;;;;4998263;28;20174;-83
2021/03/18 08:39:13;;;;;;;28.07;14.50;;;3.20;97.30;;;;;;5008507;28;21009;-83
2021/03/18 08:41:43;;;;;;;27.20;14.40;;;3.10;97.30;;;;;;5013810;28;20411;-84
2021/03/18 08:44:18;;;;;;;30.80;16.60;;;3.20;97.30;;;;;;5013384;28;20482;-84
2021/03/18 08:46:53;;;;;;;28.10;14.93;;;3.40;97.30;;;;;;5011423;28;20411;-82
2021/03/18 08:49:22;;;;;;;28.17;15.60;;;3.50;97.30;;;;;;5013472;28;20991;-83
2021/03/18 08:51:48;;;;;;;31.87;14.80;;;3.70;97.30;;;;;;5013422;28;20412;-83
2021/03/18 08:54:39;;;;;;;25.80;14.10;;;3.90;97.30;;;;;;5013388;28;20439;-84
2021/03/18 08:57:15;;;;;;;25.30;13.53;;;4.20;97.30;;;;;;5011614;28;20418;-85
2021/03/18 09:00:06;;;;;;;24.87;12.93;;;4.50;97.30;;;;;;5014093;28;20463;-86
2021/03/18 09:02:34;;;;;;;25.60;13.80;;;4.50;97.30;;;;;;5012942;28;20427;-84
2021/03/18 09:05:04;;;;;;;24.77;13.37;;;4.40;97.30;;;;;;5014131;28;20877;-84
2021/03/18 09:07:31;;;;;;;24.37;13.47;;;4.60;97.30;;;;;;5014657;28;20440;-84
2021/03/18 09:10:12;;;;;;;20.10;11.60;;;4.70;97.30;;;;;;5016807;28;20420;-85
2021/03/18 09:13:05;;;;;;;22.50;12.80;;;4.80;97.30;;;;;;5017256;28;20452;-82
2021/03/18 09:15:40;;;;;;;25.40;13.27;;;4.80;97.30;;;;;;4982059;28;20480;-84
2021/03/18 09:18:14;;;;;;;22.20;12.60;;;4.50;97.30;;;;;;5016914;28;20827;-85
2021/03/18 09:20:43;;;;;;;19.67;11.73;;;4.30;97.30;;;;;;5015828;28;20434;-83
2021/03/18 09:23:14;;;;;;;19.43;10.40;;;4.30;97.30;;;;;;5014825;28;20448;-86
2021/03/18 09:25:42;;;;;;;23.30;13.80;;;4.30;97.30;;;;;;5015680;28;20424;-85
2021/03/18 09:28:09;;;;;;;23.20;12.80;;;4.40;97.30;;;;;;5014997;28;20781;-85
2021/03/18 09:30:40;;;;;;;21.03;11.40;;;4.40;97.30;;;;;;5015017;28;20419;-85
2021/03/18 09:33:29;;;;;;;23.73;12.00;;;4.50;97.30;;;;;;5016548;28;20940;-84
2021/03/18 09:35:57;;;;;;;25.43;12.07;;;4.60;97.30;;;;;;5015264;28;20446;-83
2021/03/18 09:38:26;;;;;;;22.70;12.70;;;4.70;97.30;;;;;;5016575;28;20427;-84
2021/03/18 09:40:53;;;;;;;23.07;11.57;;;5.00;97.30;;;;;;5015296;28;20416;-83
2021/03/18 09:43:21;;;;;;;19.53;10.83;;;5.10;97.30;;;;;;5015354;28;21026;-84
2021/03/18 09:45:53;;;;;;;18.83;10.63;;;5.40;97.30;;;;;;5015375;28;20412;-84
2021/03/18 09:48:26;;;;;;;19.07;11.03;;;5.70;97.30;;;;;;5015452;28;20414;-83
2021/03/18 09:50:53;;;;;;;18.93;10.87;;;6.10;97.30;;;;;;5015232;28;20425;-83
2021/03/18 09:53:19;;;;;;;19.00;10.93;;;6.20;97.30;;;;;;5014801;28;20436;-84
2021/03/18 09:55:45;;;;;;;19.37;10.87;;;6.30;97.30;;;;;;5014350;28;20428;-82
2021/03/18 09:58:16;;;;;;;21.40;11.93;;;6.30;97.30;;;;;;5014438;28;20956;-84
2021/03/18 10:00:42;;;;;;;22.50;11.97;;;6.20;97.30;;;;;;5014683;28;20208;-84
2021/03/18 10:03:08;;;;;;;21.83;11.20;;;6.20;97.30;;;;;;5014841;28;20424;-84
2021/03/18 10:05:35;;;;;;;20.40;12.17;;;6.20;97.30;;;;;;5015534;28;20260;-83
2021/03/18 10:08:04;;;;;;;19.80;11.13;;;6.30;97.30;;;;;;5015052;28;20465;-85
2021/03/18 10:10:31;;;;;;;21.60;12.27;;;6.20;97.30;;;;;;5021474;28;20420;-85
2021/03/18 10:12:57;;;;;;;21.80;12.70;;;6.20;97.30;;;;;;5015565;28;20447;-84
2021/03/18 10:15:25;;;;;;;18.37;12.27;;;6.00;97.30;;;;;;5015232;28;20466;-87
2021/03/18 10:17:53;;;;;;;23.87;11.87;;;6.00;97.30;;;;;;5014668;28;20424;-85
2021/03/18 10:20:25;;;;;;;21.47;11.73;;;5.90;97.30;;;;;;5014702;28;20448;-85
2021/03/18 10:23:00;;;;;;;18.90;10.80;;;6.00;97.30;;;;;;5014918;28;20436;-85
2021/03/18 10:25:28;;;;;;;17.83;10.23;;;6.00;97.30;;;;;;4998602;28;20423;-85
2021/03/18 10:27:59;;;;;;;21.73;10.93;;;6.10;97.30;;;;;;5015810;28;20813;-85
2021/03/18 10:30:26;;;;;;;17.63;11.13;;;6.30;97.30;;;;;;4998838;28;20424;-85
2021/03/18 10:33:13;;;;;;;23.10;11.40;;;6.40;97.30;;;;;;4998873;28;20454;-85
2021/03/18 10:35:44;;;;;;;19.90;11.50;;;6.30;97.30;;;;;;4998082;28;20458;-84
2021/03/18 10:38:15;;;;;;;20.60;11.87;;;6.30;97.30;;;;;;4998498;28;20435;-84
2021/03/18 10:40:48;;;;;;;20.83;10.93;;;6.40;97.30;;;;;;4998664;28;20518;-85
2021/03/18 10:43:24;;;;;;;22.80;13.43;;;6.40;97.30;;;;;;4997748;28;20444;-84
2021/03/18 10:45:55;;;;;;;21.77;11.97;;;6.60;97.30;;;;;;4998092;28;20430;-85
2021/03/18 10:48:26;;;;;;;20.23;10.97;;;6.60;97.30;;;;;;4996870;28;20495;-84
2021/03/18 10:50:53;;;;;;;21.83;12.57;;;6.80;97.30;;;;;;4997184;28;21007;-84
2021/03/18 10:53:21;;;;;;;19.53;11.10;;;6.70;97.30;;;;;;4997001;28;20696;-85
2021/03/18 10:55:50;;;;;;;18.20;10.43;;;6.70;97.30;;;;;;4997256;28;20423;-85
2021/03/18 10:58:24;;;;;;;17.50;9.63;;;6.90;97.30;;;;;;4996735;28;20419;-84
2021/03/18 11:01:04;;;;;;;16.07;8.97;;;7.10;97.10;;;;;;5002659;28;20812;-84
2021/03/18 11:03:35;;;;;;;21.80;11.47;;;7.40;95.80;;;;;;5010970;28;20432;-86
2021/03/18 11:06:12;;;;;;;22.40;10.80;;;7.60;96.50;;;;;;5034727;28;20412;-85
2021/03/18 11:08:42;;;;;;;18.50;10.83;;;7.70;97.30;;;;;;5017354;28;20493;-85
2021/03/18 11:11:18;;;;;;;18.63;11.37;;;7.70;96.80;;;;;;4997657;28;20401;-85
2021/03/18 11:13:45;;;;;;;18.83;10.20;;;7.60;95.70;;;;;;4996758;28;20468;-85
2021/03/18 11:16:19;;;;;;;18.13;9.97;;;7.30;95.20;;;;;;4995891;28;20916;-85
2021/03/18 11:18:46;;;;;;;19.60;10.63;;;7.10;95.70;;;;;;4995631;28;20456;-85
2021/03/18 11:21:27;;;;;;;20.80;10.77;;;6.90;96.70;;;;;;4995430;28;20783;-85
2021/03/18 11:24:07;;;;;;;18.27;10.03;;;6.90;97.00;;;;;;5030253;22;20504;-74
2021/03/18 11:26:34;;;;;;;18.07;9.13;;;7.10;97.20;;;;;;5052739;28;20417;-74
2021/03/18 11:29:05;;;;;;;17.77;9.87;;;7.20;94.90;;;;;;5053481;28;20410;-74
2021/03/18 11:31:31;;;;;;;18.47;9.63;;;7.00;94.70;;;;;;5070874;28;20413;-75
2021/03/18 11:34:11;;;;;;;13.63;8.10;;;7.00;95.00;;;;;;5052849;28;20405;-76
2021/03/18 11:36:37;;;;;;;16.97;9.57;;;7.00;94.60;;;;;;5071423;28;20404;-74
2021/03/18 11:39:03;;;;;;;16.57;9.57;;;7.00;95.30;;;;;;5052512;28;20445;-74
2021/03/18 11:41:29;;;;;;;18.63;10.70;;;7.00;94.60;;;;;;5052334;28;20230;-74
2021/03/18 11:43:54;;;;;;;19.53;9.20;;;7.40;94.90;;;;;;5070727;28;20449;-74
2021/03/18 11:46:21;;;;;;;13.40;9.03;;;8.00;95.50;;;;;;5052546;28;20167;-75
2021/03/18 11:48:47;;;;;;;16.60;9.70;;;8.50;96.20;;;;;;5051726;28;20183;-76
2021/03/18 11:51:13;;;;;;;11.53;6.60;;;8.80;95.60;;;;;;5051911;28;20433;-75
2021/03/18 11:53:39;;;;;;;9.30;4.57;;;8.90;95.50;;;;;;5052117;28;20179;-75
2021/03/18 11:56:04;;;;;;;9.30;5.40;;;8.70;91.90;;;;;;5052946;28;20194;-75
2021/03/18 11:58:30;;;;;;;9.03;6.07;;;8.60;92.60;;;;;;5070501;28;20183;-75
2021/03/18 12:00:56;;;;;;;8.70;5.67;;;8.80;92.90;;;;;;5052250;28;20957;-74
2021/03/18 12:03:22;;;;;;;6.10;3.63;;;9.00;93.20;;;;;;5053165;28;20624;-75
2021/03/18 12:05:47;;;;;;;4.07;3.40;;;9.30;90.20;;;;;;5052593;28;20487;-74
2021/03/18 12:08:13;;;;;;;5.10;4.20;;;9.30;88.30;;;;;;5051795;28;20178;-75
2021/03/18 12:10:40;;;;;;;4.50;4.20;;;9.40;87.00;;;;;;5071014;28;20194;-74
2021/03/18 12:13:06;;;;;;;8.37;4.50;;;9.10;85.30;;;;;;5052207;28;20422;-75
2021/03/18 12:15:32;;;;;;;9.30;5.60;;;8.70;86.70;;;;;;5072777;28;20420;-75
2021/03/18 12:17:59;;;;;;;10.73;6.27;;;8.40;87.90;;;;;;5057338;28;20429;-74
2021/03/18 12:20:27;;;;;;;11.30;6.17;;;8.10;89.10;;;;;;5073850;28;20483;-74
2021/03/18 12:22:54;;;;;;;12.50;7.47;;;7.90;89.60;;;;;;5074433;28;20422;-74
2021/03/18 12:25:20;;;;;;;10.70;7.10;;;7.70;89.90;;;;;;5053382;28;20528;-75
2021/03/18 12:27:47;;;;;;;14.00;7.73;;;7.50;90.00;;;;;;5054440;28;20418;-75
2021/03/18 12:30:16;;;;;;;12.03;7.37;;;8.00;91.10;;;;;;5054417;28;20420;-74
2021/03/18 12:32:43;;;;;;;9.73;5.93;;;8.60;89.90;;;;;;5053576;28;20699;-76
2021/03/18 12:35:11;;;;;;;9.27;5.77;;;9.10;85.60;;;;;;5052855;28;20418;-75
2021/03/18 12:37:37;;;;;;;9.83;5.17;;;9.60;85.40;;;;;;5054019;28;20428;-75
2021/03/18 12:40:05;;;;;;;11.67;4.90;;;9.80;83.30;;;;;;5053074;28;20925;-74
2021/03/18 12:42:30;;;;;;;11.47;5.70;;;9.80;85.00;;;;;;5052503;28;20504;-75
2021/03/18 12:44:56;;;;;;;6.63;5.10;;;9.20;89.40;;;;;;5053030;28;20410;-74
2021/03/18 12:47:22;;;;;;;8.63;5.43;;;8.40;92.50;;;;;;5052241;28;20203;-76
2021/03/18 12:49:48;;;;;;;10.53;5.33;;;7.70;95.10;;;;;;5052764;28;20454;-74
2021/03/18 12:52:14;;;;;;;8.73;5.23;;;6.90;97.30;;;;;;5054031;28;20966;-76
2021/03/18 12:54:41;;;;;;;8.80;5.60;;;6.40;97.30;;;;;;5052446;28;20188;-75